Terminal Aerodrome Forecast
Issued by NWS

Home | Current Version | Previous Version | Text Only | Print | Product List | Glossary On
Versions: 1 2 3 4 5 6 7 8 9 10 11 12 13 14 15
000
FTUS41 KBTV 192331
TAFMPV
TAF
KMPV 192331Z 2000/2024 31008KT P6SM OVC040
     FM201600 33009G16KT P6SM SCT050
     FM202100 34007KT P6SM SKC=

USA.gov is the U.S. government's official web portal to all federal, state and local government web resources and services.